sensor_id;sensor_type;location;lat;lon;timestamp;temperature;humidity
31619;DHT22;18230;51.502;7.108;2023-09-19T00:01:16;17.00;99.90
31619;DHT22;18230;51.502;7.108;2023-09-19T00:06:20;16.90;99.90
31619;DHT22;18230;51.502;7.108;2023-09-19T00:11:21;16.90;99.90
31619;DHT22;18230;51.502;7.108;2023-09-19T00:16:21;16.80;99.90
31619;DHT22;18230;51.502;7.108;2023-09-19T00:21:22;16.70;99.90
31619;DHT22;18230;51.502;7.108;2023-09-19T00:26:23;16.70;99.90
31619;DHT22;18230;51.502;7.108;2023-09-19T00:31:24;16.60;99.90
31619;DHT22;18230;51.502;7.108;2023-09-19T00:36:25;16.50;99.90
31619;DHT22;18230;51.502;7.108;2023-09-19T00:41:26;16.50;99.90
31619;DHT22;18230;51.502;7.108;2023-09-19T00:46:31;16.50;99.90
31619;DHT22;18230;51.502;7.108;2023-09-19T00:51:32;16.50;99.90
31619;DHT22;18230;51.502;7.108;2023-09-19T00:56:36;16.40;99.90
31619;DHT22;18230;51.502;7.108;2023-09-19T01:01:39;16.30;99.90
31619;DHT22;18230;51.502;7.108;2023-09-19T01:06:40;16.30;99.90
31619;DHT22;18230;51.502;7.108;2023-09-19T01:11:43;16.30;99.90
31619;DHT22;18230;51.502;7.108;2023-09-19T01:17:12;16.20;99.90
31619;DHT22;18230;51.502;7.108;2023-09-19T01:33:26;16.10;99.90
31619;DHT22;18230;51.502;7.108;2023-09-19T01:38:27;16.10;99.90
31619;DHT22;18230;51.502;7.108;2023-09-19T01:43:33;16.10;99.90
31619;DHT22;18230;51.502;7.108;2023-09-19T01:48:56;16.00;99.90
31619;DHT22;18230;51.502;7.108;2023-09-19T01:54:11;16.00;99.90
31619;DHT22;18230;51.502;7.108;2023-09-19T01:59:16;15.90;99.90
31619;DHT22;18230;51.502;7.108;2023-09-19T02:04:17;15.90;99.90
31619;DHT22;18230;51.502;7.108;2023-09-19T02:09:17;15.80;99.90
31619;DHT22;18230;51.502;7.108;2023-09-19T02:14:18;15.80;99.90
31619;DHT22;18230;51.502;7.108;2023-09-19T02:19:20;15.80;99.90
31619;DHT22;18230;51.502;7.108;2023-09-19T02:24:21;15.80;99.90
31619;DHT22;18230;51.502;7.108;2023-09-19T02:29:22;15.70;99.90
31619;DHT22;18230;51.502;7.108;2023-09-19T02:34:23;15.70;99.90
31619;DHT22;18230;51.502;7.108;2023-09-19T02:39:24;15.60;99.90
31619;DHT22;18230;51.502;7.108;2023-09-19T02:44:24;15.60;99.90
31619;DHT22;18230;51.502;7.108;2023-09-19T02:49:25;15.60;99.90
31619;DHT22;18230;51.502;7.108;2023-09-19T02:54:26;15.60;99.90
31619;DHT22;18230;51.502;7.108;2023-09-19T02:59:26;15.60;99.90
31619;DHT22;18230;51.502;7.108;2023-09-19T03:04:29;15.50;99.90
31619;DHT22;18230;51.502;7.108;2023-09-19T03:09:29;15.50;99.90
31619;DHT22;18230;51.502;7.108;2023-09-19T03:14:30;15.50;99.90
31619;DHT22;18230;51.502;7.108;2023-09-19T03:19:35;15.60;99.90
31619;DHT22;18230;51.502;7.108;2023-09-19T03:24:37;15.50;99.90
31619;DHT22;18230;51.502;7.108;2023-09-19T03:29:38;15.50;99.90
31619;DHT22;18230;51.502;7.108;2023-09-19T03:34:39;15.50;99.90
31619;DHT22;18230;51.502;7.108;2023-09-19T03:39:44;15.40;99.90
31619;DHT22;18230;51.502;7.108;2023-09-19T03:44:44;15.40;99.90
31619;DHT22;18230;51.502;7.108;2023-09-19T03:49:45;15.40;99.90
31619;DHT22;18230;51.502;7.108;2023-09-19T03:54:45;15.40;99.90
31619;DHT22;18230;51.502;7.108;2023-09-19T03:59:46;15.40;99.90
31619;DHT22;18230;51.502;7.108;2023-09-19T04:04:51;15.30;99.90
31619;DHT22;18230;51.502;7.108;2023-09-19T04:09:52;15.30;99.90
31619;DHT22;18230;51.502;7.108;2023-09-19T04:14:55;15.30;99.90
31619;DHT22;18230;51.502;7.108;2023-09-19T04:19:56;15.30;99.90
31619;DHT22;18230;51.502;7.108;2023-09-19T04:24:56;15.30;99.90
31619;DHT22;18230;51.502;7.108;2023-09-19T04:29:57;15.30;99.90
31619;DHT22;18230;51.502;7.108;2023-09-19T04:34:59;15.30;99.90
31619;DHT22;18230;51.502;7.108;2023-09-19T04:40:03;15.30;99.90
31619;DHT22;18230;51.502;7.108;2023-09-19T04:45:06;15.30;99.90
31619;DHT22;18230;51.502;7.108;2023-09-19T04:50:08;15.30;99.90
31619;DHT22;18230;51.502;7.108;2023-09-19T04:55:14;15.30;99.90
31619;DHT22;18230;51.502;7.108;2023-09-19T05:00:20;15.30;99.90
31619;DHT22;18230;51.502;7.108;2023-09-19T05:05:24;15.20;99.90
31619;DHT22;18230;51.502;7.108;2023-09-19T05:10:26;15.20;99.90
31619;DHT22;18230;51.502;7.108;2023-09-19T05:15:26;15.20;99.90
31619;DHT22;18230;51.502;7.108;2023-09-19T05:20:27;15.20;99.90
31619;DHT22;18230;51.502;7.108;2023-09-19T05:25:34;15.20;99.90
31619;DHT22;18230;51.502;7.108;2023-09-19T05:30:38;15.20;99.90
31619;DHT22;18230;51.502;7.108;2023-09-19T05:35:39;15.20;99.90
31619;DHT22;18230;51.502;7.108;2023-09-19T05:40:42;15.20;99.90
31619;DHT22;18230;51.502;7.108;2023-09-19T05:45:43;15.20;99.90
31619;DHT22;18230;51.502;7.108;2023-09-19T05:50:44;15.30;99.90
31619;DHT22;18230;51.502;7.108;2023-09-19T05:55:49;15.30;99.90
31619;DHT22;18230;51.502;7.108;2023-09-19T06:00:50;15.40;99.90
31619;DHT22;18230;51.502;7.108;2023-09-19T06:05:50;15.50;99.90
31619;DHT22;18230;51.502;7.108;2023-09-19T06:10:53;15.50;99.90
31619;DHT22;18230;51.502;7.108;2023-09-19T06:15:55;15.60;99.90
31619;DHT22;18230;51.502;7.108;2023-09-19T06:20:56;15.60;99.90
31619;DHT22;18230;51.502;7.108;2023-09-19T06:25:58;15.70;99.90
31619;DHT22;18230;51.502;7.108;2023-09-19T06:30:58;15.70;99.90
31619;DHT22;18230;51.502;7.108;2023-09-19T06:35:59;15.70;99.90
31619;DHT22;18230;51.502;7.108;2023-09-19T06:41:00;15.80;99.90
31619;DHT22;18230;51.502;7.108;2023-09-19T06:46:01;15.90;99.90
31619;DHT22;18230;51.502;7.108;2023-09-19T06:51:02;15.90;99.90
31619;DHT22;18230;51.502;7.108;2023-09-19T06:56:05;16.00;99.90
31619;DHT22;18230;51.502;7.108;2023-09-19T07:01:06;16.00;99.90
31619;DHT22;18230;51.502;7.108;2023-09-19T07:06:07;16.10;99.90
31619;DHT22;18230;51.502;7.108;2023-09-19T07:11:09;16.20;99.90
31619;DHT22;18230;51.502;7.108;2023-09-19T07:16:09;16.20;99.90
31619;DHT22;18230;51.502;7.108;2023-09-19T07:21:27;16.20;99.90
31619;DHT22;18230;51.502;7.108;2023-09-19T07:26:28;16.20;99.90
31619;DHT22;18230;51.502;7.108;2023-09-19T07:31:29;16.30;99.90
31619;DHT22;18230;51.502;7.108;2023-09-19T07:36:31;16.40;99.90
31619;DHT22;18230;51.502;7.108;2023-09-19T07:41:33;16.50;99.90
31619;DHT22;18230;51.502;7.108;2023-09-19T07:46:33;16.60;99.90
31619;DHT22;18230;51.502;7.108;2023-09-19T07:51:34;16.60;99.90
31619;DHT22;18230;51.502;7.108;2023-09-19T07:56:35;16.70;99.90
31619;DHT22;18230;51.502;7.108;2023-09-19T08:01:35;16.80;99.90
31619;DHT22;18230;51.502;7.108;2023-09-19T08:06:37;16.90;99.90
31619;DHT22;18230;51.502;7.108;2023-09-19T08:11:39;16.90;99.90
31619;DHT22;18230;51.502;7.108;2023-09-19T08:16:40;16.90;99.90
31619;DHT22;18230;51.502;7.108;2023-09-19T08:21:43;16.90;99.90
31619;DHT22;18230;51.502;7.108;2023-09-19T08:26:47;17.00;99.90
31619;DHT22;18230;51.502;7.108;2023-09-19T08:31:48;17.00;99.90
31619;DHT22;18230;51.502;7.108;2023-09-19T08:36:55;17.10;99.90
31619;DHT22;18230;51.502;7.108;2023-09-19T08:41:57;17.30;99.90
31619;DHT22;18230;51.502;7.108;2023-09-19T08:47:10;17.40;99.90
31619;DHT22;18230;51.502;7.108;2023-09-19T08:52:25;17.60;99.90
31619;DHT22;18230;51.502;7.108;2023-09-19T08:57:29;17.60;99.90
31619;DHT22;18230;51.502;7.108;2023-09-19T09:02:32;17.70;99.90
31619;DHT22;18230;51.502;7.108;2023-09-19T09:07:35;17.90;99.90
31619;DHT22;18230;51.502;7.108;2023-09-19T09:12:37;18.00;99.90
31619;DHT22;18230;51.502;7.108;2023-09-19T09:17:41;18.00;99.90
31619;DHT22;18230;51.502;7.108;2023-09-19T09:22:53;18.20;99.90
31619;DHT22;18230;51.502;7.108;2023-09-19T09:28:02;18.20;99.90
31619;DHT22;18230;51.502;7.108;2023-09-19T09:33:10;18.30;99.90
31619;DHT22;18230;51.502;7.108;2023-09-19T09:38:15;18.30;99.90
31619;DHT22;18230;51.502;7.108;2023-09-19T09:43:36;18.40;99.90
31619;DHT22;18230;51.502;7.108;2023-09-19T09:48:38;18.70;99.90
31619;DHT22;18230;51.502;7.108;2023-09-19T09:53:39;18.80;99.90
31619;DHT22;18230;51.502;7.108;2023-09-19T09:58:51;18.90;99.90
31619;DHT22;18230;51.502;7.108;2023-09-19T10:03:59;18.80;99.90
31619;DHT22;18230;51.502;7.108;2023-09-19T10:09:01;19.00;99.90
31619;DHT22;18230;51.502;7.108;2023-09-19T10:14:27;19.30;99.90
31619;DHT22;18230;51.502;7.108;2023-09-19T10:19:58;19.30;99.90
31619;DHT22;18230;51.502;7.108;2023-09-19T10:24:59;19.30;99.90
31619;DHT22;18230;51.502;7.108;2023-09-19T10:30:01;19.30;99.90
31619;DHT22;18230;51.502;7.108;2023-09-19T10:35:05;19.40;99.90
31619;DHT22;18230;51.502;7.108;2023-09-19T10:40:08;19.50;99.90
31619;DHT22;18230;51.502;7.108;2023-09-19T10:45:09;19.80;99.90
31619;DHT22;18230;51.502;7.108;2023-09-19T10:50:21;19.70;99.90
31619;DHT22;18230;51.502;7.108;2023-09-19T10:55:27;19.80;99.90
31619;DHT22;18230;51.502;7.108;2023-09-19T11:00:30;19.80;99.90
31619;DHT22;18230;51.502;7.108;2023-09-19T11:05:34;19.60;99.90
31619;DHT22;18230;51.502;7.108;2023-09-19T11:10:50;19.70;99.90
31619;DHT22;18230;51.502;7.108;2023-09-19T11:16:03;20.10;99.90
31619;DHT22;18230;51.502;7.108;2023-09-19T11:26:44;20.40;99.90
31619;DHT22;18230;51.502;7.108;2023-09-19T11:31:48;20.30;99.90
31619;DHT22;18230;51.502;7.108;2023-09-19T11:36:50;20.20;99.90
31619;DHT22;18230;51.502;7.108;2023-09-19T11:41:50;20.40;99.90
31619;DHT22;18230;51.502;7.108;2023-09-19T11:46:56;20.50;99.90
31619;DHT22;18230;51.502;7.108;2023-09-19T11:52:00;20.30;99.90
31619;DHT22;18230;51.502;7.108;2023-09-19T11:57:09;20.50;99.90
31619;DHT22;18230;51.502;7.108;2023-09-19T12:02:16;20.30;99.90
31619;DHT22;18230;51.502;7.108;2023-09-19T12:07:21;20.30;99.90
31619;DHT22;18230;51.502;7.108;2023-09-19T12:12:23;20.50;99.90
31619;DHT22;18230;51.502;7.108;2023-09-19T12:17:37;20.50;99.90
31619;DHT22;18230;51.502;7.108;2023-09-19T12:22:43;20.60;99.90
31619;DHT22;18230;51.502;7.108;2023-09-19T12:27:45;20.60;99.90
31619;DHT22;18230;51.502;7.108;2023-09-19T12:32:50;20.60;99.90
31619;DHT22;18230;51.502;7.108;2023-09-19T12:37:53;20.60;99.90
31619;DHT22;18230;51.502;7.108;2023-09-19T12:42:56;20.70;99.90
31619;DHT22;18230;51.502;7.108;2023-09-19T12:53:27;20.80;99.90
31619;DHT22;18230;51.502;7.108;2023-09-19T12:58:31;20.70;99.90
31619;DHT22;18230;51.502;7.108;2023-09-19T13:03:32;20.70;99.90
31619;DHT22;18230;51.502;7.108;2023-09-19T13:08:38;20.80;99.90
31619;DHT22;18230;51.502;7.108;2023-09-19T13:18:53;21.00;99.90
31619;DHT22;18230;51.502;7.108;2023-09-19T13:23:55;20.90;99.90
31619;DHT22;18230;51.502;7.108;2023-09-19T13:29:02;21.00;99.90
31619;DHT22;18230;51.502;7.108;2023-09-19T13:34:02;21.00;99.90
31619;DHT22;18230;51.502;7.108;2023-09-19T13:39:03;21.00;99.90
31619;DHT22;18230;51.502;7.108;2023-09-19T13:44:05;21.00;99.90
31619;DHT22;18230;51.502;7.108;2023-09-19T13:49:06;21.20;99.90
31619;DHT22;18230;51.502;7.108;2023-09-19T13:54:07;21.10;99.90
31619;DHT22;18230;51.502;7.108;2023-09-19T13:59:08;21.10;99.90
31619;DHT22;18230;51.502;7.108;2023-09-19T14:04:09;21.10;99.90
31619;DHT22;18230;51.502;7.108;2023-09-19T14:09:12;21.00;99.90
31619;DHT22;18230;51.502;7.108;2023-09-19T14:14:13;21.00;99.90
31619;DHT22;18230;51.502;7.108;2023-09-19T14:19:14;21.00;99.90
31619;DHT22;18230;51.502;7.108;2023-09-19T14:24:17;21.00;99.90
31619;DHT22;18230;51.502;7.108;2023-09-19T14:29:18;20.90;99.90
31619;DHT22;18230;51.502;7.108;2023-09-19T14:34:20;20.80;99.90
31619;DHT22;18230;51.502;7.108;2023-09-19T14:39:20;20.80;99.90
31619;DHT22;18230;51.502;7.108;2023-09-19T14:44:21;20.70;99.90
31619;DHT22;18230;51.502;7.108;2023-09-19T14:49:22;20.70;99.90
31619;DHT22;18230;51.502;7.108;2023-09-19T14:54:23;20.70;99.90
31619;DHT22;18230;51.502;7.108;2023-09-19T14:59:24;20.70;99.90
31619;DHT22;18230;51.502;7.108;2023-09-19T15:04:25;20.60;99.90
31619;DHT22;18230;51.502;7.108;2023-09-19T15:09:26;20.50;99.90
31619;DHT22;18230;51.502;7.108;2023-09-19T15:14:26;20.50;99.90
31619;DHT22;18230;51.502;7.108;2023-09-19T15:19:27;20.40;99.90
31619;DHT22;18230;51.502;7.108;2023-09-19T15:24:28;20.30;99.90
31619;DHT22;18230;51.502;7.108;2023-09-19T15:29:28;20.20;99.90
31619;DHT22;18230;51.502;7.108;2023-09-19T15:34:29;20.10;99.90
31619;DHT22;18230;51.502;7.108;2023-09-19T15:39:30;20.20;99.90
31619;DHT22;18230;51.502;7.108;2023-09-19T15:44:34;20.30;99.90
31619;DHT22;18230;51.502;7.108;2023-09-19T15:49:35;20.40;99.90
31619;DHT22;18230;51.502;7.108;2023-09-19T15:54:35;20.50;99.90
31619;DHT22;18230;51.502;7.108;2023-09-19T15:59:42;20.80;99.90
31619;DHT22;18230;51.502;7.108;2023-09-19T16:04:45;20.90;99.90
31619;DHT22;18230;51.502;7.108;2023-09-19T16:09:45;20.90;99.90
31619;DHT22;18230;51.502;7.108;2023-09-19T16:14:46;20.70;99.90
31619;DHT22;18230;51.502;7.108;2023-09-19T16:19:46;20.60;99.90
31619;DHT22;18230;51.502;7.108;2023-09-19T16:24:47;20.40;99.90
31619;DHT22;18230;51.502;7.108;2023-09-19T16:29:48;20.40;99.90
31619;DHT22;18230;51.502;7.108;2023-09-19T16:34:49;20.20;99.90
31619;DHT22;18230;51.502;7.108;2023-09-19T16:39:49;20.10;99.90
31619;DHT22;18230;51.502;7.108;2023-09-19T16:44:50;20.10;99.90
31619;DHT22;18230;51.502;7.108;2023-09-19T16:49:51;20.10;99.90
31619;DHT22;18230;51.502;7.108;2023-09-19T16:54:53;20.00;99.90
31619;DHT22;18230;51.502;7.108;2023-09-19T16:59:54;19.90;99.90
31619;DHT22;18230;51.502;7.108;2023-09-19T17:04:54;20.00;99.90
31619;DHT22;18230;51.502;7.108;2023-09-19T17:09:55;19.90;99.90
31619;DHT22;18230;51.502;7.108;2023-09-19T17:14:55;19.90;99.90
31619;DHT22;18230;51.502;7.108;2023-09-19T17:19:56;19.80;99.90
31619;DHT22;18230;51.502;7.108;2023-09-19T17:24:57;19.80;99.90
31619;DHT22;18230;51.502;7.108;2023-09-19T17:29:58;19.70;99.90
31619;DHT22;18230;51.502;7.108;2023-09-19T17:34:59;19.70;99.90
31619;DHT22;18230;51.502;7.108;2023-09-19T17:40:00;19.70;99.90
31619;DHT22;18230;51.502;7.108;2023-09-19T17:45:05;19.60;99.90
31619;DHT22;18230;51.502;7.108;2023-09-19T17:50:06;19.60;99.90
31619;DHT22;18230;51.502;7.108;2023-09-19T17:55:10;19.60;99.90
31619;DHT22;18230;51.502;7.108;2023-09-19T18:00:12;19.50;99.90
31619;DHT22;18230;51.502;7.108;2023-09-19T18:05:15;19.50;99.90
31619;DHT22;18230;51.502;7.108;2023-09-19T18:10:16;19.50;99.90
31619;DHT22;18230;51.502;7.108;2023-09-19T18:15:17;19.60;99.90
31619;DHT22;18230;51.502;7.108;2023-09-19T18:20:18;19.50;99.90
31619;DHT22;18230;51.502;7.108;2023-09-19T18:25:19;19.50;99.90
31619;DHT22;18230;51.502;7.108;2023-09-19T18:30:20;19.50;99.90
31619;DHT22;18230;51.502;7.108;2023-09-19T18:35:21;19.50;99.90
31619;DHT22;18230;51.502;7.108;2023-09-19T18:40:24;19.40;99.90
31619;DHT22;18230;51.502;7.108;2023-09-19T18:45:25;19.40;99.90
31619;DHT22;18230;51.502;7.108;2023-09-19T18:56:49;19.30;99.90
31619;DHT22;18230;51.502;7.108;2023-09-19T19:01:49;19.30;99.90
31619;DHT22;18230;51.502;7.108;2023-09-19T19:06:50;19.30;99.90
31619;DHT22;18230;51.502;7.108;2023-09-19T19:11:51;19.20;99.90
31619;DHT22;18230;51.502;7.108;2023-09-19T19:16:52;19.20;99.90
31619;DHT22;18230;51.502;7.108;2023-09-19T19:21:54;19.20;99.90
31619;DHT22;18230;51.502;7.108;2023-09-19T19:26:54;19.10;99.90
31619;DHT22;18230;51.502;7.108;2023-09-19T19:31:55;19.10;99.90
31619;DHT22;18230;51.502;7.108;2023-09-19T19:36:56;19.10;99.90
31619;DHT22;18230;51.502;7.108;2023-09-19T19:41:56;19.10;99.90
31619;DHT22;18230;51.502;7.108;2023-09-19T19:46:59;19.10;99.90
31619;DHT22;18230;51.502;7.108;2023-09-19T19:51:59;19.10;99.90
31619;DHT22;18230;51.502;7.108;2023-09-19T19:57:04;19.10;99.90
31619;DHT22;18230;51.502;7.108;2023-09-19T20:02:05;19.10;99.90
31619;DHT22;18230;51.502;7.108;2023-09-19T20:07:06;19.00;99.90
31619;DHT22;18230;51.502;7.108;2023-09-19T20:12:07;19.00;99.90
31619;DHT22;18230;51.502;7.108;2023-09-19T20:17:08;19.00;99.90
31619;DHT22;18230;51.502;7.108;2023-09-19T20:22:11;19.00;99.90
31619;DHT22;18230;51.502;7.108;2023-09-19T20:27:13;19.00;99.90
31619;DHT22;18230;51.502;7.108;2023-09-19T20:32:14;18.90;99.90
31619;DHT22;18230;51.502;7.108;2023-09-19T20:37:14;18.90;99.90
31619;DHT22;18230;51.502;7.108;2023-09-19T20:42:16;18.90;99.90
31619;DHT22;18230;51.502;7.108;2023-09-19T20:47:16;18.90;99.90
31619;DHT22;18230;51.502;7.108;2023-09-19T20:52:17;18.90;99.90
31619;DHT22;18230;51.502;7.108;2023-09-19T20:57:18;18.90;99.90
31619;DHT22;18230;51.502;7.108;2023-09-19T21:02:18;18.90;99.90
31619;DHT22;18230;51.502;7.108;2023-09-19T21:07:19;18.90;99.90
31619;DHT22;18230;51.502;7.108;2023-09-19T21:12:20;18.90;99.90
31619;DHT22;18230;51.502;7.108;2023-09-19T21:17:21;18.80;99.90
31619;DHT22;18230;51.502;7.108;2023-09-19T21:22:22;18.80;99.90
31619;DHT22;18230;51.502;7.108;2023-09-19T21:27:24;18.80;99.90
31619;DHT22;18230;51.502;7.108;2023-09-19T21:32:24;18.80;99.90
31619;DHT22;18230;51.502;7.108;2023-09-19T21:37:25;18.80;99.90
31619;DHT22;18230;51.502;7.108;2023-09-19T21:42:25;18.80;99.90
31619;DHT22;18230;51.502;7.108;2023-09-19T21:47:26;18.70;99.90
31619;DHT22;18230;51.502;7.108;2023-09-19T21:52:27;18.70;99.90
31619;DHT22;18230;51.502;7.108;2023-09-19T21:57:28;18.70;99.90
31619;DHT22;18230;51.502;7.108;2023-09-19T22:02:29;18.70;99.90
31619;DHT22;18230;51.502;7.108;2023-09-19T22:07:32;18.70;99.90
31619;DHT22;18230;51.502;7.108;2023-09-19T22:12:33;18.70;99.90
31619;DHT22;18230;51.502;7.108;2023-09-19T22:17:33;18.70;99.90
31619;DHT22;18230;51.502;7.108;2023-09-19T22:22:34;18.70;99.90
31619;DHT22;18230;51.502;7.108;2023-09-19T22:27:35;18.70;99.90
31619;DHT22;18230;51.502;7.108;2023-09-19T22:32:35;18.70;99.90
31619;DHT22;18230;51.502;7.108;2023-09-19T22:37:36;18.80;99.90
31619;DHT22;18230;51.502;7.108;2023-09-19T22:42:37;18.80;99.90
31619;DHT22;18230;51.502;7.108;2023-09-19T22:47:41;18.80;99.90
31619;DHT22;18230;51.502;7.108;2023-09-19T22:52:44;18.80;99.90
31619;DHT22;18230;51.502;7.108;2023-09-19T22:57:48;18.80;99.90
31619;DHT22;18230;51.502;7.108;2023-09-19T23:02:49;18.70;99.90
31619;DHT22;18230;51.502;7.108;2023-09-19T23:07:51;18.70;99.90
31619;DHT22;18230;51.502;7.108;2023-09-19T23:12:55;18.80;99.90
31619;DHT22;18230;51.502;7.108;2023-09-19T23:17:55;18.80;99.90
31619;DHT22;18230;51.502;7.108;2023-09-19T23:22:56;18.80;99.90
31619;DHT22;18230;51.502;7.108;2023-09-19T23:27:58;18.90;99.90
31619;DHT22;18230;51.502;7.108;2023-09-19T23:33:03;18.90;99.90
31619;DHT22;18230;51.502;7.108;2023-09-19T23:38:04;18.90;99.90
31619;DHT22;18230;51.502;7.108;2023-09-19T23:43:07;18.90;99.90
31619;DHT22;18230;51.502;7.108;2023-09-19T23:48:12;18.90;99.90
31619;DHT22;18230;51.502;7.108;2023-09-19T23:53:13;18.90;99.90
31619;DHT22;18230;51.502;7.108;2023-09-19T23:58:14;18.90;99.90
